sensor_id;sensor_type;location;lat;lon;timestamp;P1;durP1;ratioP1;P2;durP2;ratioP2
54993;SDS011;40891;47.242;8.648;2022-08-25T00:00:25;3.47;;;2.33;;
54993;SDS011;40891;47.242;8.648;2022-08-25T00:02:53;7.03;;;2.33;;
54993;SDS011;40891;47.242;8.648;2022-08-25T00:05:18;3.50;;;2.20;;
54993;SDS011;40891;47.242;8.648;2022-08-25T00:07:44;3.78;;;2.20;;
54993;SDS011;40891;47.242;8.648;2022-08-25T00:10:09;3.08;;;2.28;;
54993;SDS011;40891;47.242;8.648;2022-08-25T00:12:34;7.28;;;2.22;;
54993;SDS011;40891;47.242;8.648;2022-08-25T00:15:00;3.08;;;2.22;;
54993;SDS011;40891;47.242;8.648;2022-08-25T00:17:25;3.67;;;2.40;;
54993;SDS011;40891;47.242;8.648;2022-08-25T00:19:52;5.73;;;2.50;;
54993;SDS011;40891;47.242;8.648;2022-08-25T00:22:17;3.40;;;2.50;;
54993;SDS011;40891;47.242;8.648;2022-08-25T00:24:43;3.03;;;2.13;;
54993;SDS011;40891;47.242;8.648;2022-08-25T00:27:08;4.88;;;2.10;;
54993;SDS011;40891;47.242;8.648;2022-08-25T00:29:36;5.25;;;2.33;;
54993;SDS011;40891;47.242;8.648;2022-08-25T00:32:02;5.75;;;2.40;;
54993;SDS011;40891;47.242;8.648;2022-08-25T00:34:32;2.58;;;2.20;;
54993;SDS011;40891;47.242;8.648;2022-08-25T00:36:59;2.43;;;2.10;;
54993;SDS011;40891;47.242;8.648;2022-08-25T00:39:25;3.33;;;2.58;;
54993;SDS011;40891;47.242;8.648;2022-08-25T00:41:53;4.67;;;2.30;;
54993;SDS011;40891;47.242;8.648;2022-08-25T00:44:21;4.47;;;2.40;;
54993;SDS011;40891;47.242;8.648;2022-08-25T00:46:52;3.30;;;2.10;;
54993;SDS011;40891;47.242;8.648;2022-08-25T00:49:23;3.73;;;2.43;;
54993;SDS011;40891;47.242;8.648;2022-08-25T00:52:00;2.63;;;2.37;;
54993;SDS011;40891;47.242;8.648;2022-08-25T00:54:31;7.03;;;2.07;;
54993;SDS011;40891;47.242;8.648;2022-08-25T00:57:02;6.50;;;2.37;;
54993;SDS011;40891;47.242;8.648;2022-08-25T00:59:28;4.53;;;2.70;;
54993;SDS011;40891;47.242;8.648;2022-08-25T01:01:54;5.60;;;2.43;;
54993;SDS011;40891;47.242;8.648;2022-08-25T01:04:21;3.50;;;2.47;;
54993;SDS011;40891;47.242;8.648;2022-08-25T01:06:46;4.70;;;2.27;;
54993;SDS011;40891;47.242;8.648;2022-08-25T01:09:13;3.33;;;2.47;;
54993;SDS011;40891;47.242;8.648;2022-08-25T01:11:39;4.77;;;2.87;;
54993;SDS011;40891;47.242;8.648;2022-08-25T01:14:06;3.50;;;2.60;;
54993;SDS011;40891;47.242;8.648;2022-08-25T01:16:33;3.83;;;2.40;;
54993;SDS011;40891;47.242;8.648;2022-08-25T01:19:00;2.40;;;2.20;;
54993;SDS011;40891;47.242;8.648;2022-08-25T01:21:27;2.45;;;2.25;;
54993;SDS011;40891;47.242;8.648;2022-08-25T01:23:55;4.50;;;2.65;;
54993;SDS011;40891;47.242;8.648;2022-08-25T01:26:24;5.47;;;2.50;;
54993;SDS011;40891;47.242;8.648;2022-08-25T01:28:52;2.47;;;2.23;;
54993;SDS011;40891;47.242;8.648;2022-08-25T01:31:38;3.70;;;2.50;;
54993;SDS011;40891;47.242;8.648;2022-08-25T01:34:05;2.80;;;2.38;;
54993;SDS011;40891;47.242;8.648;2022-08-25T01:36:32;2.40;;;2.20;;
54993;SDS011;40891;47.242;8.648;2022-08-25T01:38:58;4.10;;;2.43;;
54993;SDS011;40891;47.242;8.648;2022-08-25T01:43:59;5.93;;;2.70;;
54993;SDS011;40891;47.242;8.648;2022-08-25T01:46:25;6.32;;;2.70;;
54993;SDS011;40891;47.242;8.648;2022-08-25T01:48:51;6.27;;;2.73;;
54993;SDS011;40891;47.242;8.648;2022-08-25T01:51:18;4.53;;;2.63;;
54993;SDS011;40891;47.242;8.648;2022-08-25T01:53:47;4.70;;;2.50;;
54993;SDS011;40891;47.242;8.648;2022-08-25T01:56:14;3.50;;;2.60;;
54993;SDS011;40891;47.242;8.648;2022-08-25T01:58:42;3.30;;;2.60;;
54993;SDS011;40891;47.242;8.648;2022-08-25T02:01:11;3.13;;;2.20;;
54993;SDS011;40891;47.242;8.648;2022-08-25T02:03:40;3.63;;;2.73;;
54993;SDS011;40891;47.242;8.648;2022-08-25T02:06:09;5.73;;;2.77;;
54993;SDS011;40891;47.242;8.648;2022-08-25T02:08:36;3.70;;;2.57;;
54993;SDS011;40891;47.242;8.648;2022-08-25T02:11:02;3.33;;;2.60;;
54993;SDS011;40891;47.242;8.648;2022-08-25T02:13:28;4.10;;;2.50;;
54993;SDS011;40891;47.242;8.648;2022-08-25T02:15:54;3.37;;;2.43;;
54993;SDS011;40891;47.242;8.648;2022-08-25T02:18:21;5.33;;;2.90;;
54993;SDS011;40891;47.242;8.648;2022-08-25T02:20:47;5.43;;;2.70;;
54993;SDS011;40891;47.242;8.648;2022-08-25T02:23:13;3.30;;;2.47;;
54993;SDS011;40891;47.242;8.648;2022-08-25T02:25:39;5.63;;;2.67;;
54993;SDS011;40891;47.242;8.648;2022-08-25T02:28:06;6.50;;;2.63;;
54993;SDS011;40891;47.242;8.648;2022-08-25T02:30:32;4.70;;;2.80;;
54993;SDS011;40891;47.242;8.648;2022-08-25T02:32:58;5.23;;;2.67;;
54993;SDS011;40891;47.242;8.648;2022-08-25T02:35:23;3.80;;;2.50;;
54993;SDS011;40891;47.242;8.648;2022-08-25T02:37:49;4.30;;;2.50;;
54993;SDS011;40891;47.242;8.648;2022-08-25T02:40:15;3.20;;;2.37;;
54993;SDS011;40891;47.242;8.648;2022-08-25T02:42:41;4.10;;;2.70;;
54993;SDS011;40891;47.242;8.648;2022-08-25T02:45:07;5.47;;;2.60;;
54993;SDS011;40891;47.242;8.648;2022-08-25T02:47:32;4.03;;;2.70;;
54993;SDS011;40891;47.242;8.648;2022-08-25T02:49:58;4.33;;;2.60;;
54993;SDS011;40891;47.242;8.648;2022-08-25T02:52:23;4.43;;;2.63;;
54993;SDS011;40891;47.242;8.648;2022-08-25T02:54:49;7.67;;;2.70;;
54993;SDS011;40891;47.242;8.648;2022-08-25T02:57:14;3.90;;;2.87;;
54993;SDS011;40891;47.242;8.648;2022-08-25T02:59:40;4.03;;;2.60;;
54993;SDS011;40891;47.242;8.648;2022-08-25T03:02:05;4.47;;;2.80;;
54993;SDS011;40891;47.242;8.648;2022-08-25T03:04:31;4.83;;;2.83;;
54993;SDS011;40891;47.242;8.648;2022-08-25T03:06:56;6.43;;;3.00;;
54993;SDS011;40891;47.242;8.648;2022-08-25T03:09:23;4.17;;;2.60;;
54993;SDS011;40891;47.242;8.648;2022-08-25T03:11:48;3.87;;;2.83;;
54993;SDS011;40891;47.242;8.648;2022-08-25T03:14:13;5.67;;;3.00;;
54993;SDS011;40891;47.242;8.648;2022-08-25T03:16:39;6.30;;;2.80;;
54993;SDS011;40891;47.242;8.648;2022-08-25T03:19:06;3.10;;;2.80;;
54993;SDS011;40891;47.242;8.648;2022-08-25T03:21:32;4.60;;;2.90;;
54993;SDS011;40891;47.242;8.648;2022-08-25T03:23:58;6.03;;;3.17;;
54993;SDS011;40891;47.242;8.648;2022-08-25T03:26:24;5.10;;;2.53;;
54993;SDS011;40891;47.242;8.648;2022-08-25T03:29:08;3.30;;;2.80;;
54993;SDS011;40891;47.242;8.648;2022-08-25T03:31:34;5.53;;;3.57;;
54993;SDS011;40891;47.242;8.648;2022-08-25T03:34:01;7.10;;;2.70;;
54993;SDS011;40891;47.242;8.648;2022-08-25T03:36:27;5.27;;;3.10;;
54993;SDS011;40891;47.242;8.648;2022-08-25T03:38:52;4.27;;;3.03;;
54993;SDS011;40891;47.242;8.648;2022-08-25T03:41:19;3.27;;;2.73;;
54993;SDS011;40891;47.242;8.648;2022-08-25T03:43:47;4.90;;;2.73;;
54993;SDS011;40891;47.242;8.648;2022-08-25T03:46:17;6.07;;;3.00;;
54993;SDS011;40891;47.242;8.648;2022-08-25T03:48:43;3.70;;;3.07;;
54993;SDS011;40891;47.242;8.648;2022-08-25T03:51:08;3.33;;;2.70;;
54993;SDS011;40891;47.242;8.648;2022-08-25T03:53:34;3.23;;;2.80;;
54993;SDS011;40891;47.242;8.648;2022-08-25T03:55:59;3.53;;;2.50;;
54993;SDS011;40891;47.242;8.648;2022-08-25T03:58:24;5.17;;;2.90;;
54993;SDS011;40891;47.242;8.648;2022-08-25T04:00:49;4.17;;;3.00;;
54993;SDS011;40891;47.242;8.648;2022-08-25T04:03:16;4.97;;;2.90;;
54993;SDS011;40891;47.242;8.648;2022-08-25T04:05:42;3.17;;;2.87;;
54993;SDS011;40891;47.242;8.648;2022-08-25T04:08:07;3.20;;;2.90;;
54993;SDS011;40891;47.242;8.648;2022-08-25T04:10:33;4.47;;;3.10;;
54993;SDS011;40891;47.242;8.648;2022-08-25T04:13:00;7.63;;;3.17;;
54993;SDS011;40891;47.242;8.648;2022-08-25T04:15:26;3.70;;;3.20;;
54993;SDS011;40891;47.242;8.648;2022-08-25T04:17:51;4.93;;;3.13;;
54993;SDS011;40891;47.242;8.648;2022-08-25T04:20:17;3.80;;;3.03;;
54993;SDS011;40891;47.242;8.648;2022-08-25T04:22:42;5.03;;;3.30;;
54993;SDS011;40891;47.242;8.648;2022-08-25T04:25:08;5.60;;;3.00;;
54993;SDS011;40891;47.242;8.648;2022-08-25T04:27:34;6.33;;;3.27;;
54993;SDS011;40891;47.242;8.648;2022-08-25T04:30:00;5.37;;;3.10;;
54993;SDS011;40891;47.242;8.648;2022-08-25T04:32:25;6.43;;;3.50;;
54993;SDS011;40891;47.242;8.648;2022-08-25T04:34:51;6.60;;;3.00;;
54993;SDS011;40891;47.242;8.648;2022-08-25T04:37:16;3.70;;;3.20;;
54993;SDS011;40891;47.242;8.648;2022-08-25T04:39:42;3.50;;;3.20;;
54993;SDS011;40891;47.242;8.648;2022-08-25T04:42:07;6.67;;;3.60;;
54993;SDS011;40891;47.242;8.648;2022-08-25T04:44:32;9.63;;;3.63;;
54993;SDS011;40891;47.242;8.648;2022-08-25T04:46:58;4.70;;;3.33;;
54993;SDS011;40891;47.242;8.648;2022-08-25T04:49:24;6.13;;;3.60;;
54993;SDS011;40891;47.242;8.648;2022-08-25T04:51:50;8.07;;;3.67;;
54993;SDS011;40891;47.242;8.648;2022-08-25T04:54:15;5.47;;;3.47;;
54993;SDS011;40891;47.242;8.648;2022-08-25T04:56:41;4.57;;;3.37;;
54993;SDS011;40891;47.242;8.648;2022-08-25T04:59:12;6.53;;;3.57;;
54993;SDS011;40891;47.242;8.648;2022-08-25T05:01:39;9.00;;;3.80;;
54993;SDS011;40891;47.242;8.648;2022-08-25T05:04:07;7.87;;;3.90;;
54993;SDS011;40891;47.242;8.648;2022-08-25T05:06:34;8.57;;;3.30;;
54993;SDS011;40891;47.242;8.648;2022-08-25T05:09:02;10.20;;;3.60;;
54993;SDS011;40891;47.242;8.648;2022-08-25T05:11:28;6.37;;;3.43;;
54993;SDS011;40891;47.242;8.648;2022-08-25T05:13:54;9.23;;;4.00;;
54993;SDS011;40891;47.242;8.648;2022-08-25T05:16:21;8.30;;;3.73;;
54993;SDS011;40891;47.242;8.648;2022-08-25T05:18:48;6.90;;;3.47;;
54993;SDS011;40891;47.242;8.648;2022-08-25T05:21:16;5.47;;;3.33;;
54993;SDS011;40891;47.242;8.648;2022-08-25T05:23:43;6.00;;;3.80;;
54993;SDS011;40891;47.242;8.648;2022-08-25T05:26:14;4.73;;;3.40;;
54993;SDS011;40891;47.242;8.648;2022-08-25T05:28:42;5.47;;;3.47;;
54993;SDS011;40891;47.242;8.648;2022-08-25T05:31:09;3.17;;;2.87;;
54993;SDS011;40891;47.242;8.648;2022-08-25T05:33:36;4.43;;;3.40;;
54993;SDS011;40891;47.242;8.648;2022-08-25T05:36:03;8.43;;;3.33;;
54993;SDS011;40891;47.242;8.648;2022-08-25T05:38:29;9.67;;;3.60;;
54993;SDS011;40891;47.242;8.648;2022-08-25T05:40:58;6.90;;;3.17;;
54993;SDS011;40891;47.242;8.648;2022-08-25T05:43:26;7.18;;;3.45;;
54993;SDS011;40891;47.242;8.648;2022-08-25T05:45:56;4.83;;;3.23;;
54993;SDS011;40891;47.242;8.648;2022-08-25T05:48:22;5.05;;;3.10;;
54993;SDS011;40891;47.242;8.648;2022-08-25T05:50:57;6.13;;;3.20;;
54993;SDS011;40891;47.242;8.648;2022-08-25T05:53:24;8.43;;;4.30;;
54993;SDS011;40891;47.242;8.648;2022-08-25T05:55:50;4.97;;;3.58;;
54993;SDS011;40891;47.242;8.648;2022-08-25T05:58:18;10.17;;;4.47;;
54993;SDS011;40891;47.242;8.648;2022-08-25T06:00:44;6.55;;;4.00;;
54993;SDS011;40891;47.242;8.648;2022-08-25T06:03:10;6.07;;;3.55;;
54993;SDS011;40891;47.242;8.648;2022-08-25T06:05:35;9.60;;;4.35;;
54993;SDS011;40891;47.242;8.648;2022-08-25T06:08:01;8.13;;;3.85;;
54993;SDS011;40891;47.242;8.648;2022-08-25T06:10:26;5.72;;;3.70;;
54993;SDS011;40891;47.242;8.648;2022-08-25T06:12:52;7.13;;;4.57;;
54993;SDS011;40891;47.242;8.648;2022-08-25T06:15:18;6.10;;;4.40;;
54993;SDS011;40891;47.242;8.648;2022-08-25T06:17:46;4.95;;;4.13;;
54993;SDS011;40891;47.242;8.648;2022-08-25T06:20:19;11.90;;;4.50;;
54993;SDS011;40891;47.242;8.648;2022-08-25T06:22:47;14.55;;;4.72;;
54993;SDS011;40891;47.242;8.648;2022-08-25T06:25:14;9.63;;;4.38;;
54993;SDS011;40891;47.242;8.648;2022-08-25T06:27:42;10.38;;;4.60;;
54993;SDS011;40891;47.242;8.648;2022-08-25T06:30:08;6.30;;;3.72;;
54993;SDS011;40891;47.242;8.648;2022-08-25T06:32:36;6.20;;;3.72;;
54993;SDS011;40891;47.242;8.648;2022-08-25T06:35:03;4.75;;;3.60;;
54993;SDS011;40891;47.242;8.648;2022-08-25T06:37:31;5.88;;;3.70;;
54993;SDS011;40891;47.242;8.648;2022-08-25T06:39:56;5.70;;;3.20;;
54993;SDS011;40891;47.242;8.648;2022-08-25T06:42:22;9.52;;;4.15;;
54993;SDS011;40891;47.242;8.648;2022-08-25T06:44:47;4.72;;;3.60;;
54993;SDS011;40891;47.242;8.648;2022-08-25T06:47:13;9.73;;;3.60;;
54993;SDS011;40891;47.242;8.648;2022-08-25T06:49:40;4.32;;;3.92;;
54993;SDS011;40891;47.242;8.648;2022-08-25T06:52:06;6.65;;;3.38;;
54993;SDS011;40891;47.242;8.648;2022-08-25T06:54:32;4.80;;;3.10;;
54993;SDS011;40891;47.242;8.648;2022-08-25T06:56:57;4.53;;;3.95;;
54993;SDS011;40891;47.242;8.648;2022-08-25T06:59:23;4.88;;;3.92;;
54993;SDS011;40891;47.242;8.648;2022-08-25T07:01:49;6.07;;;4.07;;
54993;SDS011;40891;47.242;8.648;2022-08-25T07:04:14;4.93;;;3.92;;
54993;SDS011;40891;47.242;8.648;2022-08-25T07:06:40;5.47;;;3.42;;
54993;SDS011;40891;47.242;8.648;2022-08-25T07:09:06;7.53;;;3.80;;
54993;SDS011;40891;47.242;8.648;2022-08-25T07:11:32;5.20;;;3.47;;
54993;SDS011;40891;47.242;8.648;2022-08-25T07:13:59;5.07;;;3.42;;
54993;SDS011;40891;47.242;8.648;2022-08-25T07:16:26;5.88;;;3.50;;
54993;SDS011;40891;47.242;8.648;2022-08-25T07:18:52;4.43;;;3.83;;
54993;SDS011;40891;47.242;8.648;2022-08-25T07:21:20;4.28;;;3.83;;
54993;SDS011;40891;47.242;8.648;2022-08-25T07:23:49;7.43;;;3.72;;
54993;SDS011;40891;47.242;8.648;2022-08-25T07:26:23;5.00;;;3.55;;
54993;SDS011;40891;47.242;8.648;2022-08-25T07:28:52;4.05;;;3.67;;
54993;SDS011;40891;47.242;8.648;2022-08-25T07:31:17;5.88;;;3.70;;
54993;SDS011;40891;47.242;8.648;2022-08-25T07:33:43;6.93;;;4.18;;
54993;SDS011;40891;47.242;8.648;2022-08-25T07:36:27;4.90;;;3.35;;
54993;SDS011;40891;47.242;8.648;2022-08-25T07:38:53;8.43;;;3.65;;
54993;SDS011;40891;47.242;8.648;2022-08-25T07:41:19;5.80;;;3.70;;
54993;SDS011;40891;47.242;8.648;2022-08-25T07:43:44;5.68;;;3.65;;
54993;SDS011;40891;47.242;8.648;2022-08-25T07:46:11;7.30;;;3.80;;
54993;SDS011;40891;47.242;8.648;2022-08-25T07:48:37;9.52;;;3.95;;
54993;SDS011;40891;47.242;8.648;2022-08-25T07:51:06;5.05;;;3.45;;
54993;SDS011;40891;47.242;8.648;2022-08-25T07:53:36;9.52;;;3.58;;
54993;SDS011;40891;47.242;8.648;2022-08-25T07:56:02;6.43;;;3.67;;
54993;SDS011;40891;47.242;8.648;2022-08-25T07:58:33;8.05;;;3.60;;
54993;SDS011;40891;47.242;8.648;2022-08-25T08:00:58;4.03;;;3.60;;
54993;SDS011;40891;47.242;8.648;2022-08-25T08:03:24;5.68;;;3.88;;
54993;SDS011;40891;47.242;8.648;2022-08-25T08:05:49;6.63;;;3.78;;
54993;SDS011;40891;47.242;8.648;2022-08-25T08:08:15;10.98;;;4.00;;
54993;SDS011;40891;47.242;8.648;2022-08-25T08:10:40;10.68;;;3.83;;
54993;SDS011;40891;47.242;8.648;2022-08-25T08:13:06;7.13;;;3.70;;
54993;SDS011;40891;47.242;8.648;2022-08-25T08:15:33;5.18;;;3.47;;
54993;SDS011;40891;47.242;8.648;2022-08-25T08:18:00;5.13;;;3.67;;
54993;SDS011;40891;47.242;8.648;2022-08-25T08:20:27;4.50;;;3.08;;
54993;SDS011;40891;47.242;8.648;2022-08-25T08:22:53;10.95;;;3.83;;
54993;SDS011;40891;47.242;8.648;2022-08-25T08:25:18;4.65;;;3.40;;
54993;SDS011;40891;47.242;8.648;2022-08-25T08:27:44;6.35;;;3.70;;
54993;SDS011;40891;47.242;8.648;2022-08-25T08:30:10;7.93;;;3.40;;
54993;SDS011;40891;47.242;8.648;2022-08-25T08:32:36;7.93;;;3.63;;
54993;SDS011;40891;47.242;8.648;2022-08-25T08:35:01;6.28;;;3.40;;
54993;SDS011;40891;47.242;8.648;2022-08-25T08:37:27;5.95;;;3.58;;
54993;SDS011;40891;47.242;8.648;2022-08-25T08:39:53;4.05;;;3.35;;
54993;SDS011;40891;47.242;8.648;2022-08-25T08:47:43;3.38;;;2.80;;
54993;SDS011;40891;47.242;8.648;2022-08-25T08:50:40;5.97;;;2.72;;
54993;SDS011;40891;47.242;8.648;2022-08-25T08:56:01;5.68;;;2.88;;
54993;SDS011;40891;47.242;8.648;2022-08-25T08:58:44;3.95;;;2.65;;
54993;SDS011;40891;47.242;8.648;2022-08-25T09:01:15;5.47;;;2.50;;
54993;SDS011;40891;47.242;8.648;2022-08-25T09:03:55;8.40;;;3.60;;
54993;SDS011;40891;47.242;8.648;2022-08-25T09:06:50;5.70;;;3.60;;
54993;SDS011;40891;47.242;8.648;2022-08-25T09:09:23;10.32;;;3.72;;
54993;SDS011;40891;47.242;8.648;2022-08-25T09:11:59;5.97;;;4.00;;
54993;SDS011;40891;47.242;8.648;2022-08-25T09:17:38;8.93;;;3.83;;
54993;SDS011;40891;47.242;8.648;2022-08-25T09:23:51;10.00;;;4.57;;
54993;SDS011;40891;47.242;8.648;2022-08-25T09:26:13;5.35;;;3.83;;
54993;SDS011;40891;47.242;8.648;2022-08-25T09:28:57;7.40;;;3.95;;
54993;SDS011;40891;47.242;8.648;2022-08-25T09:31:30;6.18;;;4.20;;
54993;SDS011;40891;47.242;8.648;2022-08-25T09:33:57;4.03;;;3.55;;
54993;SDS011;40891;47.242;8.648;2022-08-25T09:36:25;4.30;;;3.90;;
54993;SDS011;40891;47.242;8.648;2022-08-25T09:38:50;5.40;;;3.90;;
54993;SDS011;40891;47.242;8.648;2022-08-25T09:41:17;4.72;;;3.80;;
54993;SDS011;40891;47.242;8.648;2022-08-25T09:44:03;7.38;;;5.00;;
54993;SDS011;40891;47.242;8.648;2022-08-25T09:46:29;5.10;;;4.05;;
54993;SDS011;40891;47.242;8.648;2022-08-25T09:48:55;8.77;;;3.78;;
54993;SDS011;40891;47.242;8.648;2022-08-25T09:53:55;5.47;;;3.70;;
54993;SDS011;40891;47.242;8.648;2022-08-25T09:56:30;5.13;;;3.85;;
54993;SDS011;40891;47.242;8.648;2022-08-25T09:59:17;9.95;;;3.83;;
54993;SDS011;40891;47.242;8.648;2022-08-25T10:01:48;4.78;;;3.70;;
54993;SDS011;40891;47.242;8.648;2022-08-25T10:04:14;7.07;;;3.40;;
54993;SDS011;40891;47.242;8.648;2022-08-25T10:06:53;4.88;;;3.40;;
54993;SDS011;40891;47.242;8.648;2022-08-25T10:09:27;4.47;;;3.63;;
54993;SDS011;40891;47.242;8.648;2022-08-25T10:11:58;3.60;;;2.95;;
54993;SDS011;40891;47.242;8.648;2022-08-25T10:17:10;6.22;;;3.80;;
54993;SDS011;40891;47.242;8.648;2022-08-25T10:19:41;6.07;;;3.50;;
54993;SDS011;40891;47.242;8.648;2022-08-25T10:22:11;9.20;;;4.00;;
54993;SDS011;40891;47.242;8.648;2022-08-25T10:24:47;5.38;;;3.92;;
54993;SDS011;40891;47.242;8.648;2022-08-25T10:30:10;4.30;;;3.38;;
54993;SDS011;40891;47.242;8.648;2022-08-25T10:33:15;4.10;;;3.65;;
54993;SDS011;40891;47.242;8.648;2022-08-25T10:38:57;5.47;;;3.42;;
54993;SDS011;40891;47.242;8.648;2022-08-25T10:41:32;5.20;;;3.15;;
54993;SDS011;40891;47.242;8.648;2022-08-25T10:50:28;5.65;;;3.00;;
54993;SDS011;40891;47.242;8.648;2022-08-25T10:55:54;3.70;;;2.80;;
54993;SDS011;40891;47.242;8.648;2022-08-25T11:01:38;7.47;;;3.03;;
54993;SDS011;40891;47.242;8.648;2022-08-25T11:04:13;3.85;;;2.78;;
54993;SDS011;40891;47.242;8.648;2022-08-25T11:09:36;4.50;;;2.40;;
54993;SDS011;40891;47.242;8.648;2022-08-25T11:12:09;5.07;;;2.28;;
54993;SDS011;40891;47.242;8.648;2022-08-25T11:14:40;6.43;;;2.78;;
54993;SDS011;40891;47.242;8.648;2022-08-25T11:17:22;5.95;;;2.40;;
54993;SDS011;40891;47.242;8.648;2022-08-25T11:19:51;3.50;;;2.40;;
54993;SDS011;40891;47.242;8.648;2022-08-25T11:22:28;3.83;;;2.50;;
54993;SDS011;40891;47.242;8.648;2022-08-25T11:25:08;3.97;;;2.58;;
54993;SDS011;40891;47.242;8.648;2022-08-25T11:30:09;4.93;;;2.40;;
54993;SDS011;40891;47.242;8.648;2022-08-25T11:32:37;4.53;;;2.75;;
54993;SDS011;40891;47.242;8.648;2022-08-25T11:35:07;2.97;;;2.30;;
54993;SDS011;40891;47.242;8.648;2022-08-25T11:37:38;3.85;;;2.25;;
54993;SDS011;40891;47.242;8.648;2022-08-25T11:40:27;4.03;;;2.50;;
54993;SDS011;40891;47.242;8.648;2022-08-25T11:42:59;2.92;;;2.50;;
54993;SDS011;40891;47.242;8.648;2022-08-25T11:45:41;3.55;;;2.50;;
54993;SDS011;40891;47.242;8.648;2022-08-25T11:48:31;6.85;;;2.70;;
54993;SDS011;40891;47.242;8.648;2022-08-25T11:51:05;3.80;;;2.20;;
54993;SDS011;40891;47.242;8.648;2022-08-25T11:56:02;2.97;;;2.17;;
54993;SDS011;40891;47.242;8.648;2022-08-25T11:58:49;2.55;;;2.35;;
54993;SDS011;40891;47.242;8.648;2022-08-25T12:04:10;2.80;;;2.60;;
54993;SDS011;40891;47.242;8.648;2022-08-25T12:17:42;8.40;;;2.70;;
54993;SDS011;40891;47.242;8.648;2022-08-25T12:20:08;3.45;;;2.45;;
54993;SDS011;40891;47.242;8.648;2022-08-25T12:25:02;5.73;;;2.70;;
54993;SDS011;40891;47.242;8.648;2022-08-25T12:30:23;4.22;;;2.33;;
54993;SDS011;40891;47.242;8.648;2022-08-25T12:32:56;3.60;;;2.58;;
54993;SDS011;40891;47.242;8.648;2022-08-25T12:41:09;4.85;;;2.25;;
54993;SDS011;40891;47.242;8.648;2022-08-25T12:43:38;2.42;;;1.90;;
54993;SDS011;40891;47.242;8.648;2022-08-25T12:54:15;4.82;;;1.80;;
54993;SDS011;40891;47.242;8.648;2022-08-25T12:56:52;4.78;;;1.95;;
54993;SDS011;40891;47.242;8.648;2022-08-25T12:59:23;3.80;;;1.73;;
54993;SDS011;40891;47.242;8.648;2022-08-25T13:15:40;8.20;;;2.00;;
54993;SDS011;40891;47.242;8.648;2022-08-25T13:20:47;4.80;;;1.60;;
54993;SDS011;40891;47.242;8.648;2022-08-25T13:23:18;2.50;;;1.80;;
54993;SDS011;40891;47.242;8.648;2022-08-25T13:25:50;3.80;;;1.80;;
54993;SDS011;40891;47.242;8.648;2022-08-25T13:28:19;4.32;;;1.70;;
54993;SDS011;40891;47.242;8.648;2022-08-25T13:30:54;5.53;;;2.03;;
54993;SDS011;40891;47.242;8.648;2022-08-25T13:33:22;3.33;;;1.70;;
54993;SDS011;40891;47.242;8.648;2022-08-25T13:35:54;3.65;;;1.95;;
54993;SDS011;40891;47.242;8.648;2022-08-25T13:38:40;12.30;;;4.35;;
54993;SDS011;40891;47.242;8.648;2022-08-25T13:41:07;3.85;;;2.15;;
54993;SDS011;40891;47.242;8.648;2022-08-25T13:43:34;22.85;;;5.78;;
54993;SDS011;40891;47.242;8.648;2022-08-25T13:46:01;3.40;;;2.28;;
54993;SDS011;40891;47.242;8.648;2022-08-25T13:48:45;3.92;;;1.88;;
54993;SDS011;40891;47.242;8.648;2022-08-25T13:51:18;5.05;;;2.30;;
54993;SDS011;40891;47.242;8.648;2022-08-25T13:54:23;16.20;;;6.40;;
54993;SDS011;40891;47.242;8.648;2022-08-25T13:56:48;4.78;;;1.58;;
54993;SDS011;40891;47.242;8.648;2022-08-25T13:59:27;18.92;;;5.53;;
54993;SDS011;40891;47.242;8.648;2022-08-25T14:01:58;22.05;;;9.63;;
54993;SDS011;40891;47.242;8.648;2022-08-25T14:09:50;38.92;;;11.07;;
54993;SDS011;40891;47.242;8.648;2022-08-25T14:15:32;15.00;;;4.20;;
54993;SDS011;40891;47.242;8.648;2022-08-25T14:20:55;3.83;;;1.67;;
54993;SDS011;40891;47.242;8.648;2022-08-25T14:23:23;2.97;;;1.67;;
54993;SDS011;40891;47.242;8.648;2022-08-25T14:25:51;5.63;;;1.70;;
54993;SDS011;40891;47.242;8.648;2022-08-25T14:28:20;4.90;;;2.40;;
54993;SDS011;40891;47.242;8.648;2022-08-25T14:30:51;2.47;;;1.50;;
54993;SDS011;40891;47.242;8.648;2022-08-25T14:33:20;2.45;;;1.48;;
54993;SDS011;40891;47.242;8.648;2022-08-25T14:35:51;2.38;;;1.58;;
54993;SDS011;40891;47.242;8.648;2022-08-25T14:38:17;4.43;;;1.90;;
54993;SDS011;40891;47.242;8.648;2022-08-25T14:40:43;1.75;;;1.48;;
54993;SDS011;40891;47.242;8.648;2022-08-25T14:43:09;3.90;;;1.60;;
54993;SDS011;40891;47.242;8.648;2022-08-25T14:45:41;4.18;;;1.95;;
54993;SDS011;40891;47.242;8.648;2022-08-25T14:48:11;3.72;;;1.83;;
54993;SDS011;40891;47.242;8.648;2022-08-25T14:50:41;5.32;;;2.13;;
54993;SDS011;40891;47.242;8.648;2022-08-25T14:53:09;2.55;;;1.80;;
54993;SDS011;40891;47.242;8.648;2022-08-25T14:55:35;2.58;;;1.73;;
54993;SDS011;40891;47.242;8.648;2022-08-25T14:58:01;3.60;;;1.70;;
54993;SDS011;40891;47.242;8.648;2022-08-25T15:00:27;3.58;;;1.60;;
54993;SDS011;40891;47.242;8.648;2022-08-25T15:02:52;3.03;;;1.80;;
54993;SDS011;40891;47.242;8.648;2022-08-25T15:05:22;4.82;;;1.65;;
54993;SDS011;40891;47.242;8.648;2022-08-25T15:07:51;2.75;;;1.70;;
54993;SDS011;40891;47.242;8.648;2022-08-25T15:10:35;4.80;;;1.70;;
54993;SDS011;40891;47.242;8.648;2022-08-25T15:13:01;3.95;;;1.90;;
54993;SDS011;40891;47.242;8.648;2022-08-25T15:15:26;2.85;;;1.60;;
54993;SDS011;40891;47.242;8.648;2022-08-25T15:17:52;5.60;;;1.90;;
54993;SDS011;40891;47.242;8.648;2022-08-25T15:20:18;4.03;;;1.83;;
54993;SDS011;40891;47.242;8.648;2022-08-25T15:22:44;2.40;;;1.45;;
54993;SDS011;40891;47.242;8.648;2022-08-25T15:25:09;1.90;;;1.50;;
54993;SDS011;40891;47.242;8.648;2022-08-25T15:27:36;6.13;;;1.70;;
54993;SDS011;40891;47.242;8.648;2022-08-25T15:30:02;2.10;;;1.50;;
54993;SDS011;40891;47.242;8.648;2022-08-25T15:32:29;2.38;;;1.60;;
54993;SDS011;40891;47.242;8.648;2022-08-25T15:34:54;1.98;;;1.60;;
54993;SDS011;40891;47.242;8.648;2022-08-25T15:37:20;2.33;;;1.58;;
54993;SDS011;40891;47.242;8.648;2022-08-25T15:39:46;2.50;;;1.60;;
54993;SDS011;40891;47.242;8.648;2022-08-25T15:42:12;2.30;;;1.67;;
54993;SDS011;40891;47.242;8.648;2022-08-25T15:44:40;3.75;;;1.75;;
54993;SDS011;40891;47.242;8.648;2022-08-25T15:47:06;3.22;;;1.77;;
54993;SDS011;40891;47.242;8.648;2022-08-25T15:49:32;3.00;;;2.15;;
54993;SDS011;40891;47.242;8.648;2022-08-25T15:51:59;3.53;;;1.95;;
54993;SDS011;40891;47.242;8.648;2022-08-25T15:54:25;4.00;;;2.00;;
54993;SDS011;40891;47.242;8.648;2022-08-25T15:56:51;6.60;;;1.90;;
54993;SDS011;40891;47.242;8.648;2022-08-25T15:59:17;3.38;;;1.80;;
54993;SDS011;40891;47.242;8.648;2022-08-25T16:01:43;1.77;;;1.60;;
54993;SDS011;40891;47.242;8.648;2022-08-25T16:04:08;2.65;;;1.65;;
54993;SDS011;40891;47.242;8.648;2022-08-25T16:06:34;4.20;;;1.80;;
54993;SDS011;40891;47.242;8.648;2022-08-25T16:09:00;1.67;;;1.52;;
54993;SDS011;40891;47.242;8.648;2022-08-25T16:11:27;3.35;;;1.80;;
54993;SDS011;40891;47.242;8.648;2022-08-25T16:13:54;3.25;;;1.80;;
54993;SDS011;40891;47.242;8.648;2022-08-25T16:16:22;5.78;;;2.05;;
54993;SDS011;40891;47.242;8.648;2022-08-25T16:18:49;5.47;;;2.20;;
54993;SDS011;40891;47.242;8.648;2022-08-25T16:21:16;4.95;;;2.83;;
54993;SDS011;40891;47.242;8.648;2022-08-25T16:23:44;3.10;;;1.92;;
54993;SDS011;40891;47.242;8.648;2022-08-25T16:26:10;3.40;;;1.77;;
54993;SDS011;40891;47.242;8.648;2022-08-25T16:28:37;2.90;;;2.05;;
54993;SDS011;40891;47.242;8.648;2022-08-25T16:31:04;4.30;;;2.30;;
54993;SDS011;40891;47.242;8.648;2022-08-25T16:33:33;2.55;;;1.83;;
54993;SDS011;40891;47.242;8.648;2022-08-25T16:36:05;5.38;;;2.28;;
54993;SDS011;40891;47.242;8.648;2022-08-25T16:38:33;2.08;;;1.90;;
54993;SDS011;40891;47.242;8.648;2022-08-25T16:40:58;6.13;;;2.70;;
54993;SDS011;40891;47.242;8.648;2022-08-25T16:43:24;3.58;;;2.50;;
54993;SDS011;40891;47.242;8.648;2022-08-25T16:46:00;5.25;;;2.40;;